logo
Search for airport 
image banner adimage banner adimage banner ad
image banner ad

LZBIDO - Bidovce

Located in Košice, Slovakia

ICAO - , IATA -

Data provided by Airmate  

General information

Coordinates: N48°44'34" E21°26'54"
Elevation is 984 feet MSL.
Magnetic variation is 0° East
View others Airports in Košice

Operational data

Special qualification required
Current time UTC:
Current local time:
Weather at : LZKZ - Kosice ( 18 km )
METAR: LZKZ 140100Z 28003KT CAVOK 11/09 Q1021 NOSIG
TAF: TAF LZKZ 132315Z 1400/1500 VRB02KT CAVOK BECMG 1408/1410 21010KT TEMPO 1409/1416 24015G25KT BECMG 1418/1420 VRB02KT
View NOTAMs / SUP AIP / TFR affecting this airport [VIEW]
Communications frequencies: [VIEW]

Runways:

RWY identifierQFULength (ft)Width (ft)SurfaceLDA (ft)
17166°155882GRASS1312
35 ASPH131239ASPH
35346°00UNK1312
35 GRASS155882GRASS
17G166°00UNK1558
35G346°00UNK1558

Airport contact information

Address: Košice Slovakia

Satellite view of LZBIDO